Time;durP1;ratioP1;P1;durP2;ratioP2;P2;SDS_P1;SDS_P2;PMS_P1;PMS_P2;Temp;Humidity;BMP_temperature;BMP_pressure;BME280_temperature;BME280_humidity;BME280_pressure;Samples;Min_cycle;Max_cycle;Signal;HPM_P1;HPM_P2
2023/07/09 00:02:15;;;;;;;11.25;7.38;;;17.60;99.90;;;;;;5087292;28;20279;-80
2023/07/09 00:04:42;;;;;;;10.02;7.05;;;17.60;99.90;;;;;;5089652;28;20203;-80
2023/07/09 00:07:23;;;;;;;14.20;7.63;;;17.60;99.90;;;;;;5090474;28;20284;-80
2023/07/09 00:09:50;;;;;;;11.40;7.35;;;17.30;99.90;;;;;;5094922;28;20205;-80
2023/07/09 00:12:18;;;;;;;13.13;7.55;;;17.20;99.90;;;;;;5088105;28;20229;-80
2023/07/09 00:14:45;;;;;;;12.40;7.82;;;17.30;99.90;;;;;;5086834;28;20206;-79
2023/07/09 00:17:19;;;;;;;14.07;7.13;;;17.50;99.90;;;;;;5087428;28;20305;-80
2023/07/09 00:19:46;;;;;;;11.40;7.40;;;17.80;99.90;;;;;;5091061;28;20633;-79
2023/07/09 00:22:19;;;;;;;13.63;7.20;;;17.70;99.90;;;;;;5088662;28;20708;-79
2023/07/09 00:24:50;;;;;;;13.10;7.07;;;17.50;99.90;;;;;;5088106;28;20202;-80
2023/07/09 00:27:18;;;;;;;13.18;7.97;;;17.20;99.90;;;;;;5090329;28;20218;-80
2023/07/09 00:29:46;;;;;;;13.23;7.90;;;17.40;99.90;;;;;;5091664;28;20852;-79
2023/07/09 00:32:16;;;;;;;14.35;8.65;;;17.40;99.90;;;;;;5090270;28;20240;-79
2023/07/09 00:34:48;;;;;;;13.65;8.30;;;17.60;99.90;;;;;;5090731;28;20606;-80
2023/07/09 00:37:16;;;;;;;10.85;7.68;;;17.70;99.90;;;;;;5098808;28;20238;-80
2023/07/09 00:39:43;;;;;;;12.18;7.65;;;17.80;99.90;;;;;;5086793;28;20212;-80
2023/07/09 00:42:17;;;;;;;12.27;7.45;;;17.80;99.90;;;;;;5085430;28;20225;-80
2023/07/09 00:44:45;;;;;;;13.93;7.20;;;17.70;99.90;;;;;;5090129;28;20210;-80
2023/07/09 00:47:41;;;;;;;12.85;7.45;;;17.10;99.90;;;;;;5086581;28;20210;-80
2023/07/09 00:50:16;;;;;;;11.00;7.65;;;17.20;99.90;;;;;;5093438;28;20371;-80
2023/07/09 00:52:50;;;;;;;10.63;7.20;;;17.20;99.90;;;;;;5090755;28;20220;-80
2023/07/09 00:55:23;;;;;;;10.23;7.50;;;17.20;99.90;;;;;;5083091;28;20213;-79
2023/07/09 00:57:56;;;;;;;12.65;7.45;;;17.20;99.90;;;;;;5093738;28;20573;-80
2023/07/09 01:00:24;;;;;;;12.27;7.68;;;17.40;99.90;;;;;;5094012;28;20205;-80
2023/07/09 01:02:53;;;;;;;14.05;7.82;;;17.20;99.90;;;;;;5092945;28;20229;-80
2023/07/09 01:05:20;;;;;;;16.80;7.80;;;17.10;99.90;;;;;;5083517;28;20203;-80
2023/07/09 01:07:49;;;;;;;15.15;7.85;;;17.10;99.90;;;;;;5085135;28;20274;-80
2023/07/09 01:10:18;;;;;;;13.32;7.93;;;17.00;99.90;;;;;;5086570;28;20202;-79
2023/07/09 01:12:47;;;;;;;13.88;7.68;;;16.90;99.90;;;;;;5095081;28;20247;-79
2023/07/09 01:15:15;;;;;;;12.10;8.13;;;16.80;99.90;;;;;;5093076;28;20213;-80
2023/07/09 01:17:44;;;;;;;13.77;8.23;;;16.80;99.90;;;;;;5083556;28;20202;-80
2023/07/09 01:20:17;;;;;;;16.83;8.07;;;16.90;99.90;;;;;;5094405;28;20206;-80
2023/07/09 01:22:48;;;;;;;14.90;8.10;;;17.00;99.90;;;;;;5097679;28;20247;-80
2023/07/09 01:25:15;;;;;;;15.90;8.68;;;17.20;99.90;;;;;;5092684;28;20213;-80
2023/07/09 01:27:46;;;;;;;11.30;7.40;;;17.40;99.90;;;;;;5084680;28;20199;-80
2023/07/09 01:30:22;;;;;;;16.02;7.78;;;17.20;99.90;;;;;;5097780;28;20214;-79
2023/07/09 01:32:49;;;;;;;13.43;7.85;;;17.10;99.90;;;;;;5091176;28;20289;-80
2023/07/09 01:35:18;;;;;;;12.48;7.88;;;17.10;99.90;;;;;;5090269;28;20203;-80
2023/07/09 01:37:47;;;;;;;10.65;7.63;;;17.30;99.90;;;;;;5088572;28;20201;-79
2023/07/09 01:40:16;;;;;;;13.98;7.88;;;17.30;99.90;;;;;;5092878;28;20228;-80
2023/07/09 01:42:43;;;;;;;18.17;8.38;;;17.40;99.90;;;;;;5093564;28;20232;-79
2023/07/09 01:45:11;;;;;;;13.05;8.27;;;17.20;99.90;;;;;;5083523;28;20269;-77
2023/07/09 01:47:39;;;;;;;14.20;8.15;;;17.20;99.90;;;;;;5093242;28;20292;-80
2023/07/09 01:50:07;;;;;;;12.43;7.90;;;16.80;99.90;;;;;;5087904;28;20202;-78
2023/07/09 01:52:35;;;;;;;12.45;7.95;;;16.90;99.90;;;;;;5089764;28;20222;-78
2023/07/09 01:55:04;;;;;;;10.05;7.30;;;16.90;99.90;;;;;;5089498;28;20211;-78
2023/07/09 01:57:33;;;;;;;12.63;7.85;;;16.90;99.90;;;;;;5087989;28;20240;-79
2023/07/09 02:00:05;;;;;;;14.80;8.50;;;16.80;99.90;;;;;;5088134;28;20257;-78
2023/07/09 02:02:33;;;;;;;13.65;8.18;;;17.00;99.90;;;;;;5093038;28;20242;-79
2023/07/09 02:05:00;;;;;;;12.50;7.82;;;17.10;99.90;;;;;;5093692;28;20211;-78
2023/07/09 02:07:27;;;;;;;12.43;8.13;;;17.10;99.90;;;;;;5082801;28;20206;-79
2023/07/09 02:09:54;;;;;;;15.25;8.73;;;17.00;99.90;;;;;;5092689;28;20201;-79
2023/07/09 02:12:22;;;;;;;12.40;8.55;;;17.00;99.90;;;;;;5089432;28;20578;-78
2023/07/09 02:14:49;;;;;;;15.63;9.23;;;16.90;99.90;;;;;;5089044;28;20206;-79
2023/07/09 02:17:16;;;;;;;15.27;7.50;;;17.10;99.90;;;;;;5091638;28;20217;-79
2023/07/09 02:19:44;;;;;;;10.95;7.38;;;17.00;99.90;;;;;;5094463;28;20216;-79
2023/07/09 02:22:11;;;;;;;17.77;7.95;;;16.50;99.90;;;;;;5088473;28;20720;-79
2023/07/09 02:24:39;;;;;;;14.68;7.93;;;16.50;99.90;;;;;;5093192;28;20210;-79
2023/07/09 02:27:08;;;;;;;13.93;8.25;;;16.50;99.90;;;;;;5097043;28;20582;-79
2023/07/09 02:29:36;;;;;;;12.70;8.48;;;16.60;99.90;;;;;;5094577;28;20202;-79
2023/07/09 02:32:03;;;;;;;21.92;8.57;;;16.70;99.90;;;;;;5088906;28;20226;-79
2023/07/09 02:34:31;;;;;;;14.82;8.02;;;16.60;99.90;;;;;;5095180;28;20210;-79
2023/07/09 02:36:59;;;;;;;15.10;8.00;;;15.80;99.90;;;;;;5093591;28;20578;-79
2023/07/09 02:39:26;;;;;;;15.55;8.38;;;16.10;99.90;;;;;;5092427;28;20206;-79
2023/07/09 02:41:53;;;;;;;12.73;7.97;;;16.40;99.90;;;;;;5097997;28;20249;-79
2023/07/09 02:44:21;;;;;;;12.00;8.10;;;16.40;99.90;;;;;;5098466;28;20218;-79
2023/07/09 02:46:49;;;;;;;12.55;8.68;;;16.40;99.90;;;;;;5096233;28;20211;-79
2023/07/09 02:49:16;;;;;;;12.75;8.13;;;16.30;99.90;;;;;;5088041;28;20198;-79
2023/07/09 02:51:43;;;;;;;21.20;8.30;;;16.30;99.90;;;;;;5089091;28;20608;-79
2023/07/09 02:54:10;;;;;;;19.90;7.60;;;16.30;99.90;;;;;;5090036;28;20568;-79
2023/07/09 02:56:37;;;;;;;22.70;8.57;;;15.80;99.90;;;;;;5094678;28;20229;-79
2023/07/09 02:59:04;;;;;;;20.95;8.32;;;15.30;99.90;;;;;;5094011;28;20209;-79
2023/07/09 03:01:33;;;;;;;18.98;8.38;;;15.30;99.90;;;;;;5092518;28;20234;-79
2023/07/09 03:04:01;;;;;;;16.63;8.30;;;15.70;99.90;;;;;;5098501;28;20214;-79
2023/07/09 03:06:28;;;;;;;27.30;7.93;;;15.90;99.90;;;;;;5093840;28;20206;-79
2023/07/09 03:08:55;;;;;;;25.45;8.25;;;15.50;99.90;;;;;;5088890;28;20228;-79
2023/07/09 03:11:22;;;;;;;16.80;7.90;;;15.20;99.90;;;;;;5090795;28;20249;-79
2023/07/09 03:13:49;;;;;;;15.30;7.60;;;15.50;99.90;;;;;;5092264;28;20522;-78
2023/07/09 03:16:18;;;;;;;18.58;8.00;;;15.50;99.90;;;;;;5094490;28;20207;-79
2023/07/09 03:18:46;;;;;;;16.38;8.20;;;15.40;99.90;;;;;;5088975;28;20230;-79
2023/07/09 03:21:14;;;;;;;14.55;7.55;;;15.60;99.90;;;;;;5090867;28;20281;-79
2023/07/09 03:23:41;;;;;;;16.00;8.85;;;15.80;99.90;;;;;;5086100;28;20226;-79
2023/07/09 03:26:08;;;;;;;15.23;9.05;;;16.00;99.90;;;;;;5092971;28;20599;-79
2023/07/09 03:28:35;;;;;;;18.27;7.78;;;16.00;99.90;;;;;;5094966;28;20681;-79
2023/07/09 03:31:02;;;;;;;18.88;8.45;;;16.10;99.90;;;;;;5093613;28;20225;-79
2023/07/09 03:33:29;;;;;;;15.32;8.10;;;16.00;99.90;;;;;;5086650;28;20210;-80
2023/07/09 03:35:56;;;;;;;15.63;7.85;;;15.90;99.90;;;;;;5085863;28;20316;-79
2023/07/09 03:38:24;;;;;;;26.88;8.80;;;15.80;99.90;;;;;;5095065;28;20293;-79
2023/07/09 03:40:52;;;;;;;20.58;8.27;;;15.50;99.90;;;;;;5095459;28;20213;-79
2023/07/09 03:43:19;;;;;;;15.90;8.50;;;15.50;99.90;;;;;;5090700;28;20222;-79
2023/07/09 03:45:47;;;;;;;14.88;8.05;;;15.70;99.90;;;;;;5083867;28;20285;-79
2023/07/09 03:48:15;;;;;;;15.63;8.43;;;15.80;99.90;;;;;;5094435;28;20646;-79
2023/07/09 03:50:44;;;;;;;14.55;9.60;;;16.00;99.90;;;;;;5087917;28;20229;-79
2023/07/09 03:53:11;;;;;;;15.73;9.60;;;16.10;99.90;;;;;;5085523;28;20203;-79
2023/07/09 03:55:39;;;;;;;14.63;9.13;;;16.20;99.90;;;;;;5082826;28;20211;-79
2023/07/09 03:58:08;;;;;;;17.17;8.60;;;16.50;99.90;;;;;;5091210;28;20609;-79
2023/07/09 04:00:35;;;;;;;19.13;7.50;;;16.40;99.90;;;;;;5094878;28;20614;-79
2023/07/09 04:03:02;;;;;;;16.98;8.32;;;16.50;99.90;;;;;;5093683;28;20260;-79
2023/07/09 04:05:29;;;;;;;19.35;8.40;;;16.60;99.90;;;;;;5092646;28;20208;-79
2023/07/09 04:07:56;;;;;;;15.32;8.00;;;16.60;99.90;;;;;;5097857;28;20274;-79
2023/07/09 04:10:23;;;;;;;14.38;8.68;;;16.70;99.90;;;;;;5099830;28;20278;-78
2023/07/09 04:12:51;;;;;;;17.27;8.48;;;16.80;99.90;;;;;;5088807;28;20229;-81
2023/07/09 04:15:18;;;;;;;15.40;9.15;;;17.30;99.90;;;;;;5091069;28;20277;-80
2023/07/09 04:17:45;;;;;;;18.33;8.35;;;17.60;99.90;;;;;;5094000;28;20225;-79
2023/07/09 04:20:12;;;;;;;13.90;9.27;;;17.70;99.90;;;;;;5098188;28;20204;-80
2023/07/09 04:22:39;;;;;;;12.60;8.07;;;17.80;99.90;;;;;;5087605;28;20225;-79
2023/07/09 04:25:09;;;;;;;14.48;7.97;;;19.10;99.90;;;;;;5076993;28;20206;-79
2023/07/09 04:27:36;;;;;;;12.35;8.15;;;19.40;99.90;;;;;;5082108;28;20201;-79
2023/07/09 04:30:06;;;;;;;14.88;8.27;;;19.90;99.90;;;;;;5087956;28;20198;-80
2023/07/09 04:32:32;;;;;;;14.05;7.78;;;20.20;99.90;;;;;;5092598;28;20252;-79
2023/07/09 04:34:59;;;;;;;16.75;7.40;;;20.00;99.90;;;;;;5087038;28;20204;-79
2023/07/09 04:37:26;;;;;;;14.77;7.65;;;19.10;99.90;;;;;;5095336;28;20204;-78
2023/07/09 04:39:53;;;;;;;19.33;7.93;;;18.60;99.90;;;;;;5097008;28;20206;-80
2023/07/09 04:42:20;;;;;;;14.82;8.00;;;18.60;99.90;;;;;;5087760;28;21668;-78
2023/07/09 04:44:47;;;;;;;15.90;7.90;;;18.40;99.90;;;;;;5091743;28;20225;-77
2023/07/09 04:47:15;;;;;;;16.60;8.13;;;18.30;99.90;;;;;;5088034;28;20289;-78
2023/07/09 04:49:42;;;;;;;16.08;8.00;;;18.60;99.90;;;;;;5087338;28;20213;-77
2023/07/09 04:52:11;;;;;;;14.65;8.60;;;18.70;99.90;;;;;;5083639;28;20744;-79
2023/07/09 04:54:43;;;;;;;10.45;7.90;;;18.60;99.90;;;;;;5093879;28;20214;-79
2023/07/09 04:57:10;;;;;;;16.83;8.95;;;18.50;99.90;;;;;;5091087;28;20209;-78
2023/07/09 04:59:37;;;;;;;15.18;7.97;;;18.50;99.90;;;;;;5088877;28;20240;-78
2023/07/09 05:02:04;;;;;;;16.20;8.38;;;18.50;99.90;;;;;;5095091;28;20283;-79
2023/07/09 05:04:32;;;;;;;14.65;8.70;;;18.60;99.90;;;;;;5095545;28;20221;-79
2023/07/09 05:07:00;;;;;;;19.45;8.63;;;18.60;99.90;;;;;;5089664;28;20213;-79
2023/07/09 05:09:27;;;;;;;17.15;8.50;;;18.60;99.90;;;;;;5095241;28;20240;-79
2023/07/09 05:11:54;;;;;;;16.27;9.43;;;18.80;99.90;;;;;;5092128;28;20268;-79
2023/07/09 05:14:24;;;;;;;16.63;8.77;;;18.80;99.90;;;;;;5090825;28;20193;-79
2023/07/09 05:16:54;;;;;;;19.38;9.07;;;19.10;99.90;;;;;;5089810;28;20209;-80
2023/07/09 05:19:21;;;;;;;12.95;8.43;;;19.30;99.90;;;;;;5093232;28;20197;-79
2023/07/09 05:21:49;;;;;;;11.95;8.57;;;19.20;99.90;;;;;;5096169;28;20645;-80
2023/07/09 05:24:17;;;;;;;13.80;8.60;;;19.10;99.90;;;;;;5095441;28;20253;-80
2023/07/09 05:26:46;;;;;;;13.52;8.45;;;19.10;99.90;;;;;;5094693;28;20565;-78
2023/07/09 05:29:13;;;;;;;14.30;7.97;;;19.30;99.90;;;;;;5093244;28;20201;-79
2023/07/09 05:31:41;;;;;;;14.93;8.32;;;19.40;99.90;;;;;;5089023;28;20227;-78
2023/07/09 05:34:08;;;;;;;12.88;8.13;;;19.50;99.90;;;;;;5093819;28;20212;-78
2023/07/09 05:36:36;;;;;;;13.68;8.27;;;19.70;99.90;;;;;;5096607;28;20212;-78
2023/07/09 05:39:05;;;;;;;12.75;8.25;;;19.80;99.90;;;;;;5092249;28;20584;-78
2023/07/09 05:41:33;;;;;;;10.73;7.93;;;19.80;99.90;;;;;;5088500;28;20236;-78
2023/07/09 05:44:00;;;;;;;12.88;8.40;;;20.00;99.90;;;;;;5086041;28;20221;-79
2023/07/09 05:46:27;;;;;;;11.82;7.97;;;20.70;99.90;;;;;;5094736;28;20233;-80
2023/07/09 05:48:54;;;;;;;12.73;7.38;;;21.40;99.90;;;;;;5092868;28;20228;-78
2023/07/09 05:51:24;;;;;;;9.23;7.30;;;21.20;99.90;;;;;;5092464;28;20217;-78
2023/07/09 05:53:50;;;;;;;11.25;8.10;;;21.30;99.90;;;;;;5086950;28;20199;-77
2023/07/09 05:56:19;;;;;;;14.07;8.32;;;21.30;99.90;;;;;;5091199;28;20728;-77
2023/07/09 05:58:47;;;;;;;10.65;7.47;;;21.80;99.90;;;;;;5088135;28;20202;-82
2023/07/09 06:01:14;;;;;;;8.82;7.15;;;21.30;99.90;;;;;;5090746;28;20226;-78
2023/07/09 06:03:42;;;;;;;9.73;7.15;;;21.00;99.90;;;;;;5092673;28;20222;-78
2023/07/09 06:06:10;;;;;;;8.07;6.70;;;21.00;99.90;;;;;;5088369;28;20569;-78
2023/07/09 06:08:38;;;;;;;8.38;6.82;;;21.00;99.90;;;;;;5086277;28;20198;-78
2023/07/09 06:11:05;;;;;;;9.57;6.60;;;21.10;99.90;;;;;;5068286;28;20233;-77
2023/07/09 06:13:34;;;;;;;11.05;6.75;;;21.10;99.90;;;;;;5090589;28;20642;-82
2023/07/09 06:16:01;;;;;;;6.60;5.85;;;21.10;99.90;;;;;;5092901;28;20210;-79
2023/07/09 06:18:29;;;;;;;8.35;6.22;;;21.10;99.90;;;;;;5089994;28;20209;-77
2023/07/09 06:20:59;;;;;;;7.35;6.22;;;21.40;99.90;;;;;;5087609;28;20197;-76
2023/07/09 06:23:26;;;;;;;9.23;6.70;;;21.50;99.90;;;;;;5076795;28;20240;-77
2023/07/09 06:25:55;;;;;;;7.10;6.25;;;21.40;99.90;;;;;;5089415;28;20241;-80
2023/07/09 06:28:24;;;;;;;10.80;6.47;;;21.50;99.90;;;;;;5085403;28;20206;-78
2023/07/09 06:30:52;;;;;;;10.27;6.03;;;21.50;99.90;;;;;;5080721;28;20413;-78
2023/07/09 06:33:20;;;;;;;10.85;6.47;;;21.60;99.90;;;;;;5087535;28;20297;-78
2023/07/09 06:35:48;;;;;;;10.15;6.97;;;21.70;99.90;;;;;;5082908;28;20275;-79
2023/07/09 06:38:16;;;;;;;9.25;6.25;;;21.80;99.90;;;;;;5083991;28;20213;-79
2023/07/09 06:40:42;;;;;;;7.70;5.97;;;21.80;99.90;;;;;;5085322;28;20209;-79
2023/07/09 06:43:09;;;;;;;9.80;6.30;;;21.90;99.90;;;;;;5082353;28;20198;-80
2023/07/09 06:45:36;;;;;;;7.45;6.18;;;22.00;99.90;;;;;;5085206;28;20228;-79
2023/07/09 06:48:05;;;;;;;8.48;5.88;;;22.00;99.90;;;;;;5080242;28;20206;-79
2023/07/09 06:50:34;;;;;;;9.35;6.18;;;22.20;99.90;;;;;;5081467;28;20604;-79
2023/07/09 06:53:01;;;;;;;6.35;5.75;;;22.20;99.90;;;;;;5082274;28;20239;-78
2023/07/09 06:55:27;;;;;;;7.05;5.70;;;22.30;99.90;;;;;;5081072;28;20206;-78
2023/07/09 06:57:54;;;;;;;9.02;5.57;;;22.40;99.90;;;;;;5085025;28;20263;-78
2023/07/09 07:00:21;;;;;;;7.28;6.00;;;22.50;99.90;;;;;;5083962;28;20212;-78
2023/07/09 07:02:49;;;;;;;11.50;6.25;;;22.60;99.90;;;;;;5080926;28;20577;-78
2023/07/09 07:05:18;;;;;;;9.55;6.43;;;22.70;99.90;;;;;;5083510;28;20218;-78
2023/07/09 07:07:45;;;;;;;8.77;6.30;;;22.80;99.90;;;;;;5085887;28;20206;-77
2023/07/09 07:10:12;;;;;;;10.48;5.95;;;22.90;99.90;;;;;;5091380;28;20202;-77
2023/07/09 07:12:44;;;;;;;8.65;6.30;;;23.10;99.90;;;;;;5088017;28;20233;-78
2023/07/09 07:15:13;;;;;;;9.18;5.95;;;23.20;99.90;;;;;;5093033;28;20206;-79
2023/07/09 07:17:40;;;;;;;9.43;5.97;;;23.20;99.90;;;;;;5093664;28;20335;-80
2023/07/09 07:20:09;;;;;;;10.55;5.80;;;23.30;99.90;;;;;;5091869;28;20248;-81
2023/07/09 07:22:38;;;;;;;9.77;6.13;;;23.40;99.90;;;;;;5087264;28;20245;-78
2023/07/09 07:25:06;;;;;;;7.38;5.82;;;23.50;99.90;;;;;;5089912;28;20249;-79
2023/07/09 07:27:34;;;;;;;7.43;5.65;;;23.60;99.90;;;;;;5087269;28;20202;-78
2023/07/09 07:30:01;;;;;;;8.10;6.20;;;23.70;99.90;;;;;;5083099;28;20204;-79
2023/07/09 07:32:28;;;;;;;7.05;5.88;;;23.70;99.90;;;;;;5089991;28;20230;-79
2023/07/09 07:34:55;;;;;;;6.97;6.10;;;23.70;99.90;;;;;;5087692;28;20202;-79
2023/07/09 07:37:22;;;;;;;8.30;6.22;;;23.80;99.90;;;;;;5079428;28;20225;-78
2023/07/09 07:39:51;;;;;;;7.05;5.82;;;23.90;99.90;;;;;;5084880;28;20244;-77
2023/07/09 07:42:19;;;;;;;11.20;6.28;;;24.00;99.90;;;;;;5084866;28;20698;-79
2023/07/09 07:44:47;;;;;;;7.75;6.22;;;24.00;99.90;;;;;;5084973;28;20221;-78
2023/07/09 07:47:14;;;;;;;7.88;5.93;;;24.10;99.90;;;;;;5085954;28;20212;-78
2023/07/09 07:49:40;;;;;;;6.50;5.82;;;24.30;99.90;;;;;;5079286;28;20205;-78
2023/07/09 07:52:08;;;;;;;7.88;6.03;;;24.40;99.90;;;;;;5086512;28;20918;-78
2023/07/09 07:54:35;;;;;;;10.48;6.03;;;24.40;99.90;;;;;;5083326;28;20197;-79
2023/07/09 07:57:04;;;;;;;9.80;6.35;;;24.50;99.90;;;;;;5091334;28;20201;-79
2023/07/09 07:59:34;;;;;;;7.78;6.03;;;24.50;99.90;;;;;;5084924;28;20214;-78
2023/07/09 08:02:01;;;;;;;7.88;6.20;;;24.50;99.90;;;;;;5096511;28;20621;-79
2023/07/09 08:04:28;;;;;;;6.22;5.63;;;24.50;99.90;;;;;;5092565;28;20595;-79
2023/07/09 08:06:54;;;;;;;7.60;6.13;;;24.70;99.90;;;;;;5085798;28;20206;-80
2023/07/09 08:09:21;;;;;;;7.28;6.05;;;25.00;99.90;;;;;;5090192;28;20584;-79
2023/07/09 08:11:49;;;;;;;7.85;6.13;;;25.00;99.90;;;;;;5082255;28;20237;-79
2023/07/09 08:14:17;;;;;;;7.00;6.10;;;25.00;99.90;;;;;;5087437;28;20261;-80
2023/07/09 08:16:44;;;;;;;8.13;6.07;;;25.00;99.90;;;;;;5089660;28;20213;-78
2023/07/09 08:19:11;;;;;;;8.88;6.57;;;25.00;99.90;;;;;;5085367;28;20209;-77
2023/07/09 08:21:38;;;;;;;10.30;5.72;;;25.10;99.90;;;;;;5082498;28;20230;-79
2023/07/09 08:24:05;;;;;;;8.05;5.57;;;25.30;99.90;;;;;;5080285;28;20206;-78
2023/07/09 08:26:32;;;;;;;6.65;6.05;;;25.40;99.90;;;;;;5089570;28;20202;-79
2023/07/09 08:28:59;;;;;;;7.20;5.55;;;25.50;99.90;;;;;;5088518;28;20204;-80
2023/07/09 08:31:27;;;;;;;8.10;5.82;;;25.50;99.90;;;;;;5083585;28;20226;-79
2023/07/09 08:33:54;;;;;;;6.38;5.78;;;25.50;99.90;;;;;;5082887;28;20267;-79
2023/07/09 08:36:21;;;;;;;7.03;5.85;;;25.70;99.90;;;;;;5088769;28;20228;-79
2023/07/09 08:38:47;;;;;;;9.30;6.00;;;25.80;99.90;;;;;;5090351;28;20292;-78
2023/07/09 08:41:26;;;;;;;8.55;6.13;;;25.90;99.90;;;;;;5089656;28;20229;-79
2023/07/09 08:44:03;;;;;;;8.68;5.78;;;26.00;99.90;;;;;;5090990;28;20208;-78
2023/07/09 08:46:42;;;;;;;7.40;6.13;;;25.90;99.90;;;;;;5091557;28;20209;-79
2023/07/09 08:49:18;;;;;;;7.32;5.78;;;25.90;99.90;;;;;;5083185;28;20206;-79
2023/07/09 08:51:48;;;;;;;8.77;6.20;;;26.10;99.90;;;;;;5085318;28;20229;-79
2023/07/09 08:54:27;;;;;;;6.60;5.75;;;26.30;99.90;;;;;;5085660;28;20600;-80
2023/07/09 08:56:56;;;;;;;6.65;5.72;;;26.60;99.90;;;;;;5086318;28;20274;-79
2023/07/09 08:59:23;;;;;;;12.13;5.90;;;26.90;99.90;;;;;;5085397;28;20213;-80
2023/07/09 09:01:55;;;;;;;6.95;5.63;;;27.20;99.90;;;;;;5084156;28;20307;-79
2023/07/09 09:04:25;;;;;;;8.23;5.70;;;27.30;99.90;;;;;;5077259;28;20225;-81
2023/07/09 09:07:02;;;;;;;7.38;5.93;;;27.40;99.90;;;;;;5086488;28;20564;-80
2023/07/09 09:09:34;;;;;;;7.95;6.53;;;27.60;99.90;;;;;;5088694;28;20216;-80
2023/07/09 09:12:13;;;;;;;7.70;6.03;;;27.70;99.90;;;;;;5084096;28;20234;-80
2023/07/09 09:14:44;;;;;;;7.85;6.40;;;28.10;99.90;;;;;;5090124;28;20196;-80
2023/07/09 09:17:14;;;;;;;7.28;5.65;;;28.10;99.90;;;;;;5083138;28;20286;-80
2023/07/09 09:19:47;;;;;;;8.32;6.18;;;28.40;99.90;;;;;;5083301;28;20726;-81
2023/07/09 09:22:21;;;;;;;8.73;6.15;;;28.70;99.90;;;;;;5082147;28;20304;-80
2023/07/09 09:24:59;;;;;;;7.13;6.25;;;28.60;99.90;;;;;;5082167;28;20227;-80
2023/07/09 09:27:25;;;;;;;8.25;6.35;;;28.90;99.90;;;;;;5089372;28;20205;-80
2023/07/09 09:29:52;;;;;;;9.52;6.38;;;28.80;99.90;;;;;;5082288;28;20237;-80
2023/07/09 09:32:25;;;;;;;8.45;6.28;;;28.90;99.90;;;;;;5088601;28;20226;-80
2023/07/09 09:34:52;;;;;;;6.50;5.90;;;29.10;99.90;;;;;;5083892;28;20578;-79
2023/07/09 09:37:26;;;;;;;7.88;6.03;;;29.20;99.90;;;;;;5079366;28;20223;-81
2023/07/09 09:39:53;;;;;;;7.60;6.15;;;29.10;99.90;;;;;;5083059;28;20638;-80
2023/07/09 09:42:19;;;;;;;6.60;6.00;;;29.40;99.90;;;;;;5093420;28;20217;-81
2023/07/09 09:44:47;;;;;;;7.38;5.88;;;29.40;99.90;;;;;;5076852;28;20213;-80
2023/07/09 09:47:13;;;;;;;7.15;6.40;;;29.50;99.90;;;;;;5092650;28;20204;-78
2023/07/09 09:49:43;;;;;;;7.05;5.55;;;29.50;99.90;;;;;;5080808;28;21563;-79
2023/07/09 09:52:14;;;;;;;7.00;6.05;;;30.00;99.90;;;;;;5080537;28;20233;-80
2023/07/09 09:54:44;;;;;;;7.43;6.35;;;30.30;99.90;;;;;;5079981;28;20217;-81
2023/07/09 09:57:17;;;;;;;7.93;6.32;;;30.20;99.90;;;;;;5089494;28;20213;-81
2023/07/09 09:59:46;;;;;;;6.43;5.72;;;30.30;99.90;;;;;;5089284;28;20255;-82
2023/07/09 10:02:18;;;;;;;7.47;6.07;;;30.30;99.90;;;;;;5096186;28;20225;-81
2023/07/09 10:04:47;;;;;;;6.25;5.65;;;30.80;99.90;;;;;;5086617;28;20256;-79
2023/07/09 10:07:22;;;;;;;6.78;6.05;;;31.00;99.90;;;;;;5090829;28;20225;-80
2023/07/09 10:09:51;;;;;;;6.68;5.97;;;31.00;99.90;;;;;;5089077;28;20216;-79
2023/07/09 10:12:34;;;;;;;7.80;5.90;;;30.90;99.90;;;;;;5081275;28;20229;-81
2023/07/09 10:15:15;;;;;;;7.88;6.38;;;31.00;99.90;;;;;;5086424;28;20198;-86
2023/07/09 10:17:52;;;;;;;5.60;5.10;;;31.10;99.90;;;;;;5088102;28;20212;-81
2023/07/09 10:20:25;;;;;;;7.47;5.60;;;31.00;99.90;;;;;;5087905;28;20212;-78
2023/07/09 10:22:58;;;;;;;6.70;6.10;;;31.00;99.90;;;;;;5083734;28;20232;-80
2023/07/09 10:25:39;;;;;;;7.22;5.45;;;31.20;99.90;;;;;;5084599;28;20218;-78
2023/07/09 10:28:34;;;;;;;6.82;5.72;;;31.10;99.90;;;;;;5078233;28;20683;-79
2023/07/09 10:31:08;;;;;;;6.75;5.80;;;31.00;99.90;;;;;;5084667;28;20197;-79
2023/07/09 10:33:43;;;;;;;6.72;5.80;;;31.40;99.90;;;;;;5080487;28;20686;-80
2023/07/09 10:36:24;;;;;;;7.78;6.63;;;31.20;99.90;;;;;;5079171;28;20203;-81
2023/07/09 10:38:56;;;;;;;7.07;5.70;;;31.00;99.90;;;;;;5089328;28;20213;-80
2023/07/09 10:41:24;;;;;;;7.22;6.13;;;31.30;99.90;;;;;;5096070;28;20221;-80
2023/07/09 10:43:56;;;;;;;6.65;6.03;;;31.60;99.90;;;;;;5090030;28;20209;-80
2023/07/09 10:46:27;;;;;;;9.27;6.07;;;31.50;69.10;;;;;;5085701;28;20614;-80
2023/07/09 10:48:56;;;;;;;7.47;5.97;;;31.70;97.90;;;;;;5093314;28;20208;-80
2023/07/09 10:51:28;;;;;;;6.47;5.78;;;31.40;88.10;;;;;;5084717;28;20617;-80
2023/07/09 10:53:59;;;;;;;7.28;5.97;;;31.40;52.50;;;;;;5093067;28;20315;-80
2023/07/09 10:56:27;;;;;;;6.45;5.75;;;31.80;46.20;;;;;;5093154;28;20586;-82
2023/07/09 10:59:04;;;;;;;7.25;5.43;;;32.50;81.90;;;;;;5082025;28;20201;-81
2023/07/09 11:01:33;;;;;;;6.70;5.70;;;32.20;45.70;;;;;;5077226;28;20620;-81
2023/07/09 11:04:05;;;;;;;7.07;6.15;;;31.80;67.20;;;;;;5086999;28;20653;-81
2023/07/09 11:06:38;;;;;;;7.03;6.10;;;31.80;52.10;;;;;;5088338;28;20229;-80
2023/07/09 11:09:12;;;;;;;6.15;5.55;;;31.80;39.90;;;;;;5088102;28;20272;-79
2023/07/09 11:11:46;;;;;;;7.55;6.10;;;31.90;74.90;;;;;;5092946;28;20225;-81
2023/07/09 11:14:23;;;;;;;6.03;5.43;;;32.10;61.80;;;;;;5090832;28;20245;-81
2023/07/09 11:16:51;;;;;;;6.28;5.60;;;32.40;62.90;;;;;;5091077;28;20201;-81
2023/07/09 11:19:20;;;;;;;6.32;5.68;;;32.10;33.40;;;;;;5086376;28;20303;-82
2023/07/09 11:22:00;;;;;;;7.50;6.03;;;32.40;21.60;;;;;;5079647;28;20603;-82
2023/07/09 11:24:36;;;;;;;8.80;5.97;;;32.40;50.70;;;;;;5086840;28;20209;-81
2023/07/09 11:27:15;;;;;;;7.53;5.93;;;32.30;65.40;;;;;;5087832;28;20218;-81
2023/07/09 11:29:48;;;;;;;6.97;5.93;;;33.00;30.00;;;;;;5079391;28;20655;-81
2023/07/09 11:32:20;;;;;;;7.95;6.25;;;33.10;4.40;;;;;;5085737;28;20222;-81
2023/07/09 11:34:47;;;;;;;8.00;6.05;;;32.40;53.20;;;;;;5091868;28;20292;-81
2023/07/09 11:37:17;;;;;;;6.40;5.80;;;33.10;43.10;;;;;;5080585;28;20202;-82
2023/07/09 11:39:46;;;;;;;7.40;5.50;;;32.70;29.90;;;;;;5089221;28;20738;-82
2023/07/09 11:42:31;;;;;;;7.30;5.97;;;32.80;43.00;;;;;;5085421;28;20221;-81
2023/07/09 11:45:03;;;;;;;6.93;5.85;;;32.60;26.40;;;;;;5091539;28;20202;-81
2023/07/09 11:47:36;;;;;;;7.70;6.30;;;32.50;54.20;;;;;;5089821;28;20564;-82
2023/07/09 11:50:06;;;;;;;7.95;6.13;;;32.40;23.90;;;;;;5090043;28;20669;-81
2023/07/09 11:52:37;;;;;;;7.38;6.07;;;32.20;17.40;;;;;;5094150;28;20272;-82
2023/07/09 11:55:21;;;;;;;6.55;5.93;;;32.20;1.00;;;;;;5096463;28;20216;-83
2023/07/09 11:57:49;;;;;;;6.38;5.65;;;32.40;1.00;;;;;;5073808;28;20249;-81
2023/07/09 12:00:17;;;;;;;6.30;5.70;;;32.30;1.00;;;;;;5086495;28;20206;-82
2023/07/09 12:02:44;;;;;;;9.93;6.00;;;32.50;1.00;;;;;;5085195;28;20711;-81
2023/07/09 12:05:11;;;;;;;7.65;5.93;;;32.60;21.80;;;;;;5084775;28;20208;-82
2023/07/09 12:07:39;;;;;;;7.80;5.95;;;32.70;1.00;;;;;;5085037;28;20296;-82
2023/07/09 12:10:19;;;;;;;6.13;5.53;;;32.70;1.00;;;;;;5087616;28;20713;-81
2023/07/09 12:12:46;;;;;;;6.47;5.40;;;32.60;1.00;;;;;;5093727;28;20282;-81
2023/07/09 12:15:19;;;;;;;7.50;6.28;;;32.80;1.00;;;;;;5086246;28;20198;-80
2023/07/09 12:17:54;;;;;;;6.50;5.55;;;32.50;1.00;;;;;;5086328;28;20235;-80
2023/07/09 12:20:21;;;;;;;8.35;6.05;;;32.50;1.00;;;;;;5086053;28;20678;-81
2023/07/09 12:22:49;;;;;;;8.50;6.53;;;32.50;1.00;;;;;;5093496;28;20229;-81
2023/07/09 12:25:24;;;;;;;6.25;5.47;;;32.70;1.00;;;;;;5086774;28;20206;-81
2023/07/09 12:27:51;;;;;;;6.30;5.65;;;32.70;1.00;;;;;;5084700;28;20209;-80
2023/07/09 12:30:19;;;;;;;7.07;6.00;;;32.80;1.00;;;;;;5090341;28;20227;-81
2023/07/09 12:32:49;;;;;;;6.80;6.07;;;32.70;1.00;;;;;;5083200;28;20237;-81
2023/07/09 12:35:17;;;;;;;8.77;5.80;;;32.90;1.00;;;;;;5080296;28;20199;-81
2023/07/09 12:37:45;;;;;;;7.78;5.97;;;32.90;1.00;;;;;;5077078;28;20217;-80
2023/07/09 12:40:20;;;;;;;5.95;5.43;;;32.90;1.00;;;;;;5089160;28;20604;-80
2023/07/09 12:42:47;;;;;;;6.25;5.65;;;32.80;1.00;;;;;;5086984;28;20232;-80
2023/07/09 12:45:17;;;;;;;6.93;6.10;;;33.30;1.00;;;;;;5085266;28;20602;-81
2023/07/09 12:47:45;;;;;;;7.10;6.38;;;33.00;1.00;;;;;;5087480;28;20205;-80
2023/07/09 12:50:20;;;;;;;6.07;5.45;;;32.70;1.00;;;;;;5084766;28;20684;-80
2023/07/09 12:52:48;;;;;;;7.35;6.38;;;33.00;1.00;;;;;;5082677;28;20670;-81
2023/07/09 12:55:25;;;;;;;6.28;5.68;;;33.00;1.00;;;;;;5093513;28;20722;-81